Time;durP1;ratioP1;P1;durP2;ratioP2;P2;SDS_P1;SDS_P2;PMS_P1;PMS_P2;Temp;Humidity;BMP_temperature;BMP_pressure;BME280_temperature;BME280_humidity;BME280_pressure;Samples;Min_cycle;Max_cycle;Signal;HPM_P1;HPM_P2
2022/10/04 00:01:47;;;;;;;9.38;3.70;;;25.80;99.90;;;;;;4925600;29;20031;-69
2022/10/04 00:04:22;;;;;;;7.53;3.50;;;25.80;99.90;;;;;;4933909;29;20028;-67
2022/10/04 00:06:58;;;;;;;7.82;3.70;;;25.80;99.90;;;;;;4954648;28;20053;-68
2022/10/04 00:09:33;;;;;;;5.40;3.10;;;25.80;99.90;;;;;;5031029;28;20029;-68
2022/10/04 00:12:01;;;;;;;8.68;4.03;;;25.80;99.90;;;;;;5031557;28;20049;-67
2022/10/04 00:14:34;;;;;;;9.07;6.00;;;25.80;99.90;;;;;;5035073;28;20026;-66
2022/10/04 00:17:12;;;;;;;4.80;3.70;;;25.90;99.90;;;;;;5034883;28;20553;-69
2022/10/04 00:19:39;;;;;;;6.93;3.95;;;26.00;99.90;;;;;;5034894;28;20120;-68
2022/10/04 00:22:09;;;;;;;37.05;32.97;;;26.00;99.90;;;;;;5034792;28;20025;-68
2022/10/04 00:24:37;;;;;;;5.13;4.63;;;26.10;99.90;;;;;;5038559;28;20022;-67
2022/10/04 00:27:25;;;;;;;9.07;6.20;;;26.10;99.90;;;;;;5042742;28;20021;-67
2022/10/04 00:30:01;;;;;;;13.07;4.20;;;26.10;99.90;;;;;;5042798;28;20059;-66
2022/10/04 00:32:39;;;;;;;4.88;3.65;;;26.20;99.90;;;;;;5041763;28;20051;-66
2022/10/04 00:35:24;;;;;;;6.22;4.45;;;26.20;99.90;;;;;;5043350;28;20538;-66
2022/10/04 00:37:53;;;;;;;6.28;3.70;;;26.30;99.90;;;;;;5040390;28;20117;-67
2022/10/04 00:40:20;;;;;;;4.72;3.53;;;26.40;99.90;;;;;;5043607;28;20029;-67
2022/10/04 00:42:55;;;;;;;6.03;4.00;;;26.30;99.90;;;;;;5044445;28;20021;-69
2022/10/04 00:45:41;;;;;;;8.32;4.10;;;26.40;99.90;;;;;;5039385;28;20025;-66
2022/10/04 00:48:08;;;;;;;6.03;3.80;;;26.30;99.90;;;;;;5034413;28;20029;-66
2022/10/04 00:50:44;;;;;;;6.85;3.97;;;26.30;99.90;;;;;;5034318;28;20042;-68
2022/10/04 00:53:21;;;;;;;5.68;3.70;;;26.30;99.90;;;;;;5034160;28;20029;-66
2022/10/04 00:55:56;;;;;;;9.07;3.65;;;26.30;99.90;;;;;;5034117;28;20096;-66
2022/10/04 00:58:29;;;;;;;12.13;4.60;;;26.40;99.90;;;;;;5033990;28;20689;-67
2022/10/04 01:01:00;;;;;;;7.65;3.38;;;26.50;99.90;;;;;;5046245;28;20024;-67
2022/10/04 01:03:32;;;;;;;6.38;3.38;;;26.60;99.90;;;;;;5096181;28;20390;-68
2022/10/04 01:06:04;;;;;;;3.50;3.20;;;26.70;99.90;;;;;;5095323;28;20443;-66
2022/10/04 01:08:37;;;;;;;8.57;3.67;;;26.80;99.90;;;;;;5096270;28;20208;-68
2022/10/04 01:11:13;;;;;;;5.70;4.50;;;26.90;99.90;;;;;;5096321;28;20028;-69
2022/10/04 01:13:49;;;;;;;10.55;4.55;;;26.90;99.90;;;;;;5095967;28;20120;-68
2022/10/04 01:16:26;;;;;;;4.22;3.20;;;26.90;99.90;;;;;;5096656;28;20040;-68
2022/10/04 01:18:52;;;;;;;3.80;3.20;;;27.00;99.90;;;;;;5096257;28;20387;-66
2022/10/04 01:21:20;;;;;;;4.22;3.17;;;27.10;99.90;;;;;;5095959;28;20016;-67
2022/10/04 01:23:51;;;;;;;5.97;3.83;;;27.20;99.90;;;;;;5095362;28;20064;-68
2022/10/04 01:26:28;;;;;;;5.82;3.38;;;27.10;99.90;;;;;;5095853;28;20508;-71
2022/10/04 01:29:17;;;;;;;5.28;3.28;;;27.20;99.90;;;;;;5095659;28;20032;-68
2022/10/04 01:31:46;;;;;;;4.55;2.78;;;27.20;99.90;;;;;;5096288;28;20028;-70
2022/10/04 01:34:20;;;;;;;9.40;3.70;;;27.10;99.90;;;;;;5095067;28;20084;-68
2022/10/04 01:36:48;;;;;;;4.72;3.15;;;27.20;99.90;;;;;;5095240;28;20391;-67
2022/10/04 01:39:17;;;;;;;5.38;3.50;;;27.30;99.90;;;;;;5095299;28;20484;-68
2022/10/04 01:41:48;;;;;;;9.70;6.53;;;27.30;99.90;;;;;;5095860;28;20033;-68
2022/10/04 01:44:27;;;;;;;6.20;4.28;;;27.50;99.90;;;;;;5095510;28;20398;-66
2022/10/04 01:46:56;;;;;;;7.28;3.30;;;27.60;99.90;;;;;;5095436;28;20026;-69
2022/10/04 01:49:29;;;;;;;4.72;3.20;;;27.70;99.90;;;;;;5095372;28;20506;-69
2022/10/04 01:52:06;;;;;;;3.08;2.70;;;27.70;99.90;;;;;;5095247;28;20028;-68
2022/10/04 01:54:40;;;;;;;7.38;3.08;;;27.80;99.90;;;;;;5095414;28;20468;-69
2022/10/04 01:57:15;;;;;;;6.57;3.47;;;27.80;99.90;;;;;;5095260;28;20031;-68
2022/10/04 01:59:57;;;;;;;4.03;3.58;;;27.90;99.90;;;;;;5095248;28;20099;-68
2022/10/04 02:02:50;;;;;;;4.63;3.63;;;27.90;99.90;;;;;;5095126;28;20028;-68
2022/10/04 02:05:31;;;;;;;5.28;3.15;;;27.90;99.90;;;;;;5095048;28;20468;-68
2022/10/04 02:08:05;;;;;;;4.70;3.42;;;27.90;99.90;;;;;;5095357;28;20470;-67
2022/10/04 02:10:35;;;;;;;3.90;3.53;;;27.90;99.90;;;;;;5095145;28;20028;-68
2022/10/04 02:13:05;;;;;;;4.22;3.30;;;28.00;99.90;;;;;;5094718;28;20048;-68
2022/10/04 02:15:38;;;;;;;6.47;3.88;;;28.00;99.90;;;;;;5094926;28;20073;-68
2022/10/04 02:18:12;;;;;;;5.80;3.22;;;27.90;99.90;;;;;;5094707;28;20024;-67
2022/10/04 02:20:41;;;;;;;3.33;2.65;;;27.90;99.90;;;;;;5094909;28;20056;-68
2022/10/04 02:23:09;;;;;;;3.75;2.70;;;27.90;99.90;;;;;;5095014;28;20051;-68
2022/10/04 02:25:37;;;;;;;3.58;2.92;;;27.90;99.90;;;;;;5095185;28;20028;-68
2022/10/04 02:28:04;;;;;;;6.85;3.72;;;27.90;99.90;;;;;;5095191;28;20021;-69
2022/10/04 02:30:37;;;;;;;8.32;3.15;;;28.00;99.90;;;;;;5095335;28;20020;-67
2022/10/04 02:33:04;;;;;;;11.13;3.30;;;28.00;99.90;;;;;;5095033;28;20382;-69
2022/10/04 02:35:34;;;;;;;4.38;2.90;;;28.10;99.90;;;;;;5093996;28;20024;-68
2022/10/04 02:38:08;;;;;;;4.00;2.75;;;28.20;99.90;;;;;;5094921;28;20024;-69
2022/10/04 02:40:59;;;;;;;7.13;3.17;;;28.30;99.90;;;;;;5094776;28;20020;-69
2022/10/04 02:43:42;;;;;;;8.82;3.10;;;28.30;99.90;;;;;;5094701;28;20030;-69
2022/10/04 02:46:17;;;;;;;4.03;2.65;;;28.30;99.90;;;;;;5094558;28;20024;-69
2022/10/04 02:48:49;;;;;;;4.50;3.38;;;28.40;99.90;;;;;;5094568;28;20123;-69
2022/10/04 02:51:19;;;;;;;7.93;3.78;;;28.50;99.90;;;;;;5094498;28;20483;-68
2022/10/04 02:53:57;;;;;;;5.45;3.78;;;28.60;99.90;;;;;;5094548;28;20032;-68
2022/10/04 02:56:24;;;;;;;5.82;3.08;;;28.70;99.90;;;;;;5094286;28;20410;-69
2022/10/04 02:58:51;;;;;;;3.50;2.30;;;28.80;99.90;;;;;;5094157;28;20019;-69
2022/10/04 03:01:27;;;;;;;4.70;3.10;;;28.90;99.90;;;;;;5094301;28;20031;-68
2022/10/04 03:03:55;;;;;;;6.47;3.03;;;28.90;99.90;;;;;;5094187;28;20057;-67
2022/10/04 03:06:27;;;;;;;5.68;3.05;;;28.90;99.90;;;;;;5093985;28;20028;-68
2022/10/04 03:09:00;;;;;;;4.90;3.50;;;28.90;99.90;;;;;;5094158;28;20616;-67
2022/10/04 03:11:30;;;;;;;3.58;3.22;;;29.00;99.90;;;;;;5093920;28;20402;-69
2022/10/04 03:13:59;;;;;;;5.72;3.53;;;29.00;99.90;;;;;;5093862;28;20032;-69
2022/10/04 03:16:33;;;;;;;5.95;3.88;;;29.10;99.90;;;;;;5094667;28;20024;-68
2022/10/04 03:19:00;;;;;;;5.95;4.00;;;29.30;99.90;;;;;;5094886;28;20083;-63
2022/10/04 03:21:27;;;;;;;5.72;4.07;;;29.30;99.90;;;;;;5094924;28;20026;-64
2022/10/04 03:23:54;;;;;;;7.78;5.03;;;29.40;99.90;;;;;;5094863;28;20529;-63
2022/10/04 03:26:31;;;;;;;6.45;4.57;;;29.50;99.90;;;;;;5090401;28;20024;-62
2022/10/04 03:28:59;;;;;;;4.65;4.25;;;29.50;99.90;;;;;;5080554;28;20057;-64
2022/10/04 03:31:27;;;;;;;9.77;6.30;;;29.50;99.90;;;;;;5078184;28;20017;-63
2022/10/04 03:33:56;;;;;;;12.25;5.70;;;29.50;99.90;;;;;;5073499;28;20132;-64
2022/10/04 03:36:24;;;;;;;9.48;6.32;;;29.60;99.90;;;;;;5073545;28;20483;-64
2022/10/04 03:38:54;;;;;;;13.93;8.07;;;29.70;99.90;;;;;;5073530;28;20024;-64
2022/10/04 03:41:25;;;;;;;13.50;6.78;;;29.90;99.90;;;;;;5103795;28;20068;-63
2022/10/04 03:43:55;;;;;;;7.30;6.20;;;30.00;99.90;;;;;;5104385;28;20506;-63
2022/10/04 03:46:27;;;;;;;8.32;7.10;;;30.10;99.90;;;;;;5102588;28;20024;-63
2022/10/04 03:48:55;;;;;;;5.32;4.82;;;30.10;99.90;;;;;;5102128;28;20032;-64
2022/10/04 03:51:24;;;;;;;8.48;6.13;;;30.20;99.90;;;;;;5103601;28;20121;-64
2022/10/04 03:54:01;;;;;;;10.45;6.20;;;30.10;99.90;;;;;;5099611;28;20115;-65
2022/10/04 03:56:34;;;;;;;5.68;5.07;;;30.00;99.90;;;;;;5101803;28;20031;-65
2022/10/04 03:59:05;;;;;;;6.55;4.47;;;30.00;99.90;;;;;;5099395;28;20064;-65
2022/10/04 04:02:01;;;;;;;6.23;4.30;;;30.10;99.90;;;;;;5104155;28;20047;-64
2022/10/04 04:04:29;;;;;;;7.00;4.45;;;30.30;99.90;;;;;;5040159;28;20247;-64
2022/10/04 04:07:11;;;;;;;8.07;4.40;;;30.40;99.90;;;;;;5039777;28;20152;-65
2022/10/04 04:10:06;;;;;;;8.73;3.95;;;30.30;99.90;;;;;;5036979;28;20423;-65
2022/10/04 04:12:34;;;;;;;6.95;4.13;;;30.40;99.90;;;;;;5043845;28;20602;-64
2022/10/04 04:15:03;;;;;;;5.05;3.95;;;30.50;99.90;;;;;;5051314;28;20124;-65
2022/10/04 04:17:35;;;;;;;5.18;3.45;;;30.50;99.90;;;;;;5051256;28;20021;-65
2022/10/04 04:20:06;;;;;;;4.80;3.13;;;30.50;99.90;;;;;;5051519;28;20023;-65
2022/10/04 04:22:35;;;;;;;6.22;3.72;;;30.60;99.90;;;;;;5051847;28;20041;-70
2022/10/04 04:25:07;;;;;;;5.93;4.00;;;30.60;99.90;;;;;;5051358;28;20476;-66
2022/10/04 04:27:35;;;;;;;;;;;30.60;99.90;;;;;;5051560;28;20039;-66
2022/10/04 04:30:03;;;;;;;5.15;3.30;;;30.80;99.90;;;;;;5051785;28;19911;-64
2022/10/04 04:32:39;;;;;;;5.95;3.80;;;30.90;99.90;;;;;;5051353;28;20033;-66
2022/10/04 04:35:19;;;;;;;5.35;3.97;;;31.00;99.90;;;;;;5039081;28;20516;-67
2022/10/04 04:38:05;;;;;;;6.72;3.83;;;30.90;99.90;;;;;;5026731;28;20033;-68
2022/10/04 04:40:33;;;;;;;7.03;3.95;;;30.90;99.90;;;;;;5038442;28;20423;-68
2022/10/04 04:43:01;;;;;;;5.97;3.55;;;31.00;99.90;;;;;;5092720;28;20494;-66
2022/10/04 04:45:31;;;;;;;4.25;3.47;;;31.10;99.90;;;;;;5091158;28;20020;-67
2022/10/04 04:48:00;;;;;;;4.93;3.08;;;31.10;99.90;;;;;;5091423;28;20107;-67
2022/10/04 04:50:29;;;;;;;5.65;3.28;;;31.00;99.90;;;;;;5092410;28;20422;-67
2022/10/04 04:53:08;;;;;;;5.15;3.38;;;31.00;99.90;;;;;;5092057;28;20107;-67
2022/10/04 04:55:38;;;;;;;4.43;3.63;;;31.10;99.90;;;;;;5092671;28;20055;-68
2022/10/04 04:58:07;;;;;;;6.50;3.50;;;31.10;99.90;;;;;;5080741;28;20032;-70
2022/10/04 05:00:38;;;;;;;5.68;4.20;;;31.00;99.90;;;;;;5080656;28;20054;-68
2022/10/04 05:03:16;;;;;;;5.93;3.50;;;31.00;99.90;;;;;;5094351;28;20497;-70
2022/10/04 05:05:48;;;;;;;6.75;4.10;;;31.00;99.90;;;;;;5094489;28;20205;-69
2022/10/04 05:08:23;;;;;;;5.47;4.10;;;31.00;99.90;;;;;;5080907;28;20029;-68
2022/10/04 05:11:14;;;;;;;5.68;4.15;;;31.00;99.90;;;;;;5073914;28;20056;-68
2022/10/04 05:13:55;;;;;;;7.45;4.10;;;31.00;99.90;;;;;;5041847;28;20049;-69
2022/10/04 05:16:49;;;;;;;5.95;4.00;;;30.90;99.90;;;;;;5052773;28;20056;-68
2022/10/04 05:19:31;;;;;;;9.95;4.82;;;31.00;99.90;;;;;;5042160;28;20591;-69
2022/10/04 05:22:01;;;;;;;8.20;4.25;;;31.10;99.90;;;;;;5033618;28;20153;-70
2022/10/04 05:24:33;;;;;;;5.15;4.60;;;31.10;99.90;;;;;;5033749;28;20484;-69
2022/10/04 05:27:05;;;;;;;4.70;3.72;;;31.10;99.90;;;;;;5033547;28;20033;-70
2022/10/04 05:29:35;;;;;;;4.47;3.87;;;31.00;99.90;;;;;;5033563;28;20025;-68
2022/10/04 05:32:15;;;;;;;6.50;4.68;;;30.90;99.90;;;;;;5033324;28;20402;-65
2022/10/04 05:34:47;;;;;;;9.05;5.25;;;30.90;99.90;;;;;;5033394;28;20083;-67
2022/10/04 05:37:14;;;;;;;;;;;31.00;99.90;;;;;;5033730;28;20026;-67
2022/10/04 05:40:09;;;;;;;11.48;8.27;;;31.00;99.90;;;;;;5033350;28;19905;-67
2022/10/04 05:42:44;;;;;;;19.33;13.32;;;31.00;99.90;;;;;;4955072;29;20409;-67
2022/10/04 05:45:16;;;;;;;62.13;19.98;;;31.20;99.90;;;;;;4972377;28;20035;-66
2022/10/04 05:47:45;;;;;;;12.50;8.18;;;31.30;99.90;;;;;;4974267;28;20085;-66
2022/10/04 05:50:19;;;;;;;12.10;5.80;;;31.40;99.90;;;;;;4974283;28;20034;-66
2022/10/04 05:52:49;;;;;;;5.45;3.72;;;31.60;99.90;;;;;;4973855;28;20023;-68
2022/10/04 05:55:42;;;;;;;7.78;4.43;;;31.60;99.90;;;;;;4974117;28;20027;-68
2022/10/04 05:58:26;;;;;;;5.30;4.47;;;31.60;99.90;;;;;;4937387;29;20115;-68
2022/10/04 06:01:02;;;;;;;7.55;4.10;;;31.50;99.90;;;;;;4948505;29;20534;-68
2022/10/04 06:03:29;;;;;;;7.75;4.90;;;31.60;99.90;;;;;;4954359;29;20079;-67
2022/10/04 06:06:16;;;;;;;11.35;4.15;;;31.60;99.90;;;;;;4954401;29;20058;-67
2022/10/04 06:09:02;;;;;;;5.82;4.80;;;31.50;99.90;;;;;;4888106;29;20040;-67
2022/10/04 06:12:08;;;;;;;7.97;5.82;;;31.60;99.90;;;;;;4895249;29;20044;-67
2022/10/04 06:14:37;;;;;;;6.45;5.60;;;31.70;99.90;;;;;;4889423;29;20088;-68
2022/10/04 06:17:15;;;;;;;6.55;4.57;;;31.70;99.90;;;;;;4888215;29;20135;-66
2022/10/04 06:20:01;;;;;;;7.75;5.22;;;31.70;99.90;;;;;;4889503;29;20071;-67
2022/10/04 06:22:29;;;;;;;11.80;6.82;;;31.70;99.90;;;;;;4890014;29;20399;-66
2022/10/04 06:25:12;;;;;;;6.47;5.50;;;31.80;99.90;;;;;;4892147;29;20212;-65
2022/10/04 06:27:58;;;;;;;5.85;4.95;;;31.80;99.90;;;;;;4893009;29;20020;-67
2022/10/04 06:30:26;;;;;;;6.00;4.80;;;31.80;99.90;;;;;;4888983;29;20103;-66
2022/10/04 06:33:15;;;;;;;7.30;5.53;;;31.80;99.90;;;;;;4929050;29;20046;-66
2022/10/04 06:35:51;;;;;;;5.97;5.32;;;31.90;99.90;;;;;;4941902;29;20035;-64
2022/10/04 06:38:37;;;;;;;5.68;4.97;;;31.90;99.90;;;;;;4949809;28;20036;-66
2022/10/04 06:41:03;;;;;;;6.30;5.32;;;32.00;99.90;;;;;;4992786;28;20026;-66
2022/10/04 06:43:38;;;;;;;6.28;4.82;;;32.00;99.90;;;;;;4991655;28;20073;-67
2022/10/04 06:46:17;;;;;;;7.35;5.00;;;32.00;99.90;;;;;;4992497;28;20090;-63
2022/10/04 06:49:00;;;;;;;5.20;4.68;;;32.20;99.90;;;;;;5000952;28;20033;-64
2022/10/04 06:52:06;;;;;;;7.20;5.60;;;32.10;99.90;;;;;;5001808;28;20544;-64
2022/10/04 06:54:44;;;;;;;7.90;6.03;;;32.10;99.90;;;;;;4948873;29;20114;-65
2022/10/04 06:57:30;;;;;;;6.45;5.07;;;32.10;99.90;;;;;;4944538;29;20019;-66
2022/10/04 06:59:57;;;;;;;7.00;4.65;;;32.20;99.90;;;;;;4947617;29;20419;-66
2022/10/04 07:02:33;;;;;;;11.25;9.05;;;32.30;99.90;;;;;;4949026;29;20092;-66
2022/10/04 07:05:11;;;;;;;5.95;5.35;;;32.40;99.90;;;;;;4953309;28;20063;-66
2022/10/04 07:07:43;;;;;;;9.65;5.55;;;32.40;99.90;;;;;;4953323;29;20066;-67
2022/10/04 07:10:20;;;;;;;;;;;32.40;99.90;;;;;;4953883;29;20031;-66
2022/10/04 07:12:59;;;;;;;5.25;4.75;;;32.40;99.90;;;;;;4952910;29;19919;-66
2022/10/04 07:15:31;;;;;;;5.22;4.38;;;32.50;99.90;;;;;;4953395;29;20028;-66
2022/10/04 07:17:58;;;;;;;;;;;32.50;99.90;;;;;;4953613;29;20437;-66
2022/10/04 07:20:32;;;;;;;8.25;7.05;;;32.50;99.90;;;;;;4952583;29;19990;-66
2022/10/04 07:23:13;;;;;;;7.93;6.18;;;32.50;99.90;;;;;;4952062;28;20111;-66
2022/10/04 07:25:48;;;;;;;7.07;5.35;;;32.50;99.90;;;;;;4983792;28;20034;-66
2022/10/04 07:31:05;;;;;;;9.95;6.80;;;32.70;99.90;;;;;;5044488;28;20036;-67
2022/10/04 07:33:43;;;;;;;6.75;4.53;;;32.80;99.90;;;;;;5075647;28;20024;-65
2022/10/04 07:36:39;;;;;;;9.55;5.95;;;32.80;99.90;;;;;;5086965;28;20474;-65
2022/10/04 07:39:24;;;;;;;5.97;5.38;;;32.90;99.90;;;;;;5043942;28;20057;-65
2022/10/04 07:41:56;;;;;;;9.40;6.20;;;32.90;99.90;;;;;;5031096;28;20067;-66
2022/10/04 07:44:47;;;;;;;6.88;6.18;;;32.90;99.90;;;;;;5041935;28;20053;-65
2022/10/04 07:47:21;;;;;;;6.30;5.53;;;32.80;99.90;;;;;;5030932;28;20488;-65
2022/10/04 07:49:49;;;;;;;6.57;5.97;;;32.70;99.90;;;;;;5039429;28;20573;-65
2022/10/04 07:52:27;;;;;;;84.43;60.45;;;32.70;99.90;;;;;;5050607;28;20472;-65
2022/10/04 07:55:15;;;;;;;13.48;8.80;;;32.70;99.90;;;;;;5041385;28;20500;-65
2022/10/04 07:58:08;;;;;;;9.32;6.93;;;32.70;99.90;;;;;;5031660;28;20048;-66
2022/10/04 08:00:43;;;;;;;9.93;6.13;;;32.70;99.90;;;;;;5039453;28;20546;-66
2022/10/04 08:03:11;;;;;;;9.55;7.13;;;32.80;99.90;;;;;;5033302;28;20439;-66
2022/10/04 08:05:44;;;;;;;9.27;6.65;;;32.70;99.90;;;;;;5041533;28;20038;-65
2022/10/04 08:08:14;;;;;;;8.88;6.90;;;32.70;99.90;;;;;;5041649;28;20040;-68
2022/10/04 08:11:09;;;;;;;7.53;6.65;;;32.70;99.90;;;;;;5039169;28;20569;-66
2022/10/04 08:13:39;;;;;;;8.52;7.00;;;32.70;99.90;;;;;;5033518;28;20045;-66
2022/10/04 08:16:37;;;;;;;10.50;7.75;;;32.80;99.90;;;;;;5037790;28;20526;-66
2022/10/04 08:19:44;;;;;;;13.25;7.18;;;32.90;99.90;;;;;;5037195;28;20052;-67
2022/10/04 08:22:25;;;;;;;13.10;11.30;;;32.90;99.90;;;;;;5030506;28;20067;-69
2022/10/04 08:24:53;;;;;;;18.90;11.65;;;32.90;99.90;;;;;;5041533;28;20527;-66
2022/10/04 08:27:29;;;;;;;12.38;8.80;;;32.80;99.90;;;;;;5030344;28;20377;-63
2022/10/04 08:30:04;;;;;;;19.15;11.68;;;32.80;99.90;;;;;;5038333;28;20029;-65
2022/10/04 08:32:32;;;;;;;15.70;7.47;;;32.80;99.90;;;;;;5049932;28;20479;-64
2022/10/04 08:35:01;;;;;;;10.55;8.90;;;32.60;99.90;;;;;;5059294;28;20036;-66
2022/10/04 08:37:47;;;;;;;9.05;5.90;;;32.40;99.90;;;;;;5077589;28;20027;-65
2022/10/04 08:40:23;;;;;;;9.18;7.45;;;32.30;99.90;;;;;;5028580;28;20439;-66
2022/10/04 08:43:10;;;;;;;11.55;7.50;;;32.30;99.90;;;;;;5035985;28;20117;-66
2022/10/04 08:45:46;;;;;;;11.10;6.78;;;32.30;99.90;;;;;;5047664;28;20044;-67
2022/10/04 08:48:49;;;;;;;10.57;6.45;;;32.50;99.90;;;;;;5049083;28;20033;-67
2022/10/04 08:51:21;;;;;;;8.50;6.13;;;32.50;99.90;;;;;;5033889;28;20185;-66
2022/10/04 08:53:50;;;;;;;17.50;13.65;;;32.40;99.90;;;;;;5034033;28;20043;-67
2022/10/04 08:56:44;;;;;;;24.27;15.63;;;32.50;99.90;;;;;;5038505;28;20030;-66
2022/10/04 08:59:14;;;;;;;21.63;14.23;;;32.60;99.90;;;;;;5043135;28;20040;-66
2022/10/04 09:02:09;;;;;;;19.13;11.80;;;32.60;99.90;;;;;;5044920;28;20039;-66
2022/10/04 09:04:57;;;;;;;16.15;10.00;;;32.60;99.90;;;;;;5049980;28;20503;-66
2022/10/04 09:07:25;;;;;;;33.85;18.23;;;32.50;99.90;;;;;;4992854;28;20389;-67
2022/10/04 09:10:20;;;;;;;26.08;14.38;;;32.30;99.90;;;;;;4993119;28;20035;-66
2022/10/04 09:12:57;;;;;;;33.35;18.75;;;32.20;99.90;;;;;;4992922;28;20046;-66
2022/10/04 09:15:30;;;;;;;31.88;17.48;;;32.00;99.90;;;;;;4991145;28;20043;-68
2022/10/04 09:18:07;;;;;;;29.30;16.20;;;31.80;99.90;;;;;;5046058;28;20029;-67
2022/10/04 09:21:06;;;;;;;35.67;17.60;;;31.60;99.90;;;;;;5063550;28;20052;-66
2022/10/04 09:23:45;;;;;;;29.40;15.32;;;31.30;99.90;;;;;;5011729;28;20069;-67
2022/10/04 09:26:39;;;;;;;36.28;18.67;;;30.90;99.90;;;;;;5012445;28;20125;-69
2022/10/04 09:29:09;;;;;;;24.08;12.50;;;30.60;99.90;;;;;;5011286;28;20040;-68
2022/10/04 09:32:16;;;;;;;19.05;11.07;;;30.20;99.90;;;;;;5012190;28;20034;-67
2022/10/04 09:34:51;;;;;;;23.95;9.48;;;29.80;99.90;;;;;;4887152;29;20199;-68
2022/10/04 09:37:57;;;;;;;19.83;7.50;;;29.20;99.90;;;;;;4891876;29;20044;-65
2022/10/04 09:40:45;;;;;;;55.53;39.15;;;28.70;99.90;;;;;;4871688;29;20088;-65
2022/10/04 09:43:53;;;;;;;22.73;9.63;;;28.20;99.90;;;;;;4861222;29;20041;-68
2022/10/04 09:46:50;;;;;;;19.63;10.40;;;27.90;99.90;;;;;;4872513;29;20041;-70
2022/10/04 09:49:27;;;;;;;22.42;12.27;;;27.80;99.90;;;;;;4885752;29;20113;-66
2022/10/04 09:51:54;;;;;;;22.13;10.50;;;27.70;99.90;;;;;;4876795;29;20056;-67
2022/10/04 09:54:36;;;;;;;19.02;10.55;;;27.30;99.90;;;;;;4870487;29;20124;-68
2022/10/04 09:57:18;;;;;;;8.43;3.35;;;26.80;99.90;;;;;;4860524;29;20393;-66
2022/10/04 09:59:55;;;;;;;;;;;26.40;99.90;;;;;;4895302;29;20040;-72
2022/10/04 10:02:43;;;;;;;19.75;4.95;;;26.10;99.90;;;;;;4916548;29;19997;-64
2022/10/04 10:05:38;;;;;;;32.03;8.27;;;26.10;99.90;;;;;;4974152;28;20441;-64
2022/10/04 11:33:44;;;;;;;7.30;5.18;;;26.20;99.90;;;;;;5062119;28;20412;-63
2022/10/04 11:36:27;;;;;;;13.82;5.93;;;26.60;99.90;;;;;;5066771;28;20024;-64
2022/10/04 11:39:33;;;;;;;90.13;60.95;;;26.60;99.90;;;;;;5066650;28;20020;-64
2022/10/04 11:42:18;;;;;;;67.45;46.50;;;26.60;99.90;;;;;;5064700;28;20482;-66
2022/10/04 11:45:18;;;;;;;18.27;13.75;;;26.50;99.90;;;;;;5054712;28;20033;-67
2022/10/04 11:48:10;;;;;;;25.58;19.08;;;26.60;99.90;;;;;;5087933;28;20040;-67
2022/10/04 11:51:11;;;;;;;23.70;14.27;;;26.50;99.90;;;;;;5067542;28;20084;-67
2022/10/04 11:54:02;;;;;;;15.15;8.30;;;26.60;99.90;;;;;;5067415;28;20071;-64
2022/10/04 11:56:44;;;;;;;8.87;5.67;;;26.60;99.90;;;;;;5067507;28;20052;-63
2022/10/04 11:59:27;;;;;;;5.20;4.45;;;26.60;99.90;;;;;;5067197;28;20083;-66
2022/10/04 12:01:58;;;;;;;6.07;4.68;;;26.60;99.90;;;;;;5067546;28;20033;-63
2022/10/04 12:04:35;;;;;;;10.95;6.63;;;26.60;99.90;;;;;;5067428;28;20102;-66
2022/10/04 12:07:32;;;;;;;12.68;6.80;;;26.60;99.90;;;;;;5067555;28;20037;-65
2022/10/04 12:10:11;;;;;;;8.55;4.82;;;26.50;99.90;;;;;;5067533;28;20390;-65
2022/10/04 12:13:06;;;;;;;7.97;4.78;;;26.50;99.90;;;;;;5066928;28;20041;-65
2022/10/04 12:15:44;;;;;;;7.47;5.95;;;26.50;99.90;;;;;;5082653;28;20054;-66
2022/10/04 12:18:19;;;;;;;8.80;7.10;;;26.40;99.90;;;;;;5094018;28;20029;-66
2022/10/04 12:21:05;;;;;;;11.88;8.38;;;26.40;99.90;;;;;;5088538;28;20107;-66
2022/10/04 12:24:13;;;;;;;13.77;8.98;;;26.40;99.90;;;;;;5083584;28;20031;-64
2022/10/04 12:26:41;;;;;;;15.43;9.88;;;26.30;99.90;;;;;;5026703;28;20018;-64
2022/10/04 12:29:16;;;;;;;15.98;10.35;;;26.30;99.90;;;;;;5026973;28;20079;-63
2022/10/04 12:32:03;;;;;;;15.70;10.30;;;26.20;99.90;;;;;;5027104;28;20490;-63
2022/10/04 12:34:40;;;;;;;16.65;11.88;;;26.20;99.90;;;;;;5075829;28;20037;-63
2022/10/04 12:37:24;;;;;;;14.00;9.73;;;26.30;99.90;;;;;;5074700;28;20479;-64
2022/10/04 12:40:14;;;;;;;14.45;10.15;;;26.30;99.90;;;;;;5073583;28;20601;-63
2022/10/04 14:23:08;;;;;;;24.23;14.98;;;25.50;99.90;;;;;;5091501;28;20406;-65
2022/10/04 14:25:54;;;;;;;23.17;15.70;;;26.30;99.90;;;;;;5090525;28;20048;-65
2022/10/04 14:28:20;;;;;;;21.77;15.05;;;26.30;99.90;;;;;;5088165;28;20078;-68
2022/10/04 14:31:07;;;;;;;25.15;14.93;;;26.30;99.90;;;;;;5083986;28;20029;-65
2022/10/04 14:34:01;;;;;;;24.73;16.63;;;26.30;99.90;;;;;;5074501;28;20090;-66
2022/10/04 14:36:54;;;;;;;28.90;15.82;;;26.30;99.90;;;;;;5071014;28;20487;-65
2022/10/04 14:39:52;;;;;;;22.25;14.27;;;26.20;99.90;;;;;;5071043;28;20066;-66
2022/10/04 14:42:44;;;;;;;22.00;13.70;;;26.10;99.90;;;;;;4989266;28;20115;-66
2022/10/04 14:45:20;;;;;;;26.15;13.70;;;26.10;99.90;;;;;;4988901;28;20394;-66
2022/10/04 14:48:08;;;;;;;25.33;12.48;;;26.10;99.90;;;;;;4997440;28;20104;-66
2022/10/04 14:51:09;;;;;;;23.50;12.07;;;26.00;99.90;;;;;;4989432;28;20255;-66
2022/10/04 14:53:48;;;;;;;21.70;10.98;;;25.90;99.90;;;;;;4989852;28;20030;-66
2022/10/04 14:56:25;;;;;;;18.23;9.65;;;25.90;99.90;;;;;;4989866;28;20038;-66
2022/10/04 14:58:53;;;;;;;12.80;8.25;;;25.80;99.90;;;;;;4989099;28;20106;-66
2022/10/04 15:01:23;;;;;;;15.45;8.77;;;25.80;99.90;;;;;;4989269;28;20026;-66
2022/10/04 15:04:12;;;;;;;13.45;7.80;;;25.80;99.90;;;;;;4989224;28;20109;-65
2022/10/04 15:06:41;;;;;;;12.52;8.32;;;25.90;99.90;;;;;;4989094;28;20030;-65
2022/10/04 15:09:29;;;;;;;15.23;8.05;;;25.90;99.90;;;;;;4989066;28;20039;-65
2022/10/04 15:12:35;;;;;;;16.00;8.52;;;25.90;99.90;;;;;;4976483;28;20035;-65
2022/10/04 15:15:11;;;;;;;13.35;8.40;;;26.10;99.90;;;;;;4931117;29;20296;-66
2022/10/04 15:17:55;;;;;;;15.30;8.27;;;26.10;99.90;;;;;;4933445;28;20552;-66
2022/10/04 15:20:34;;;;;;;15.10;8.82;;;26.10;99.90;;;;;;4940165;29;20051;-66
2022/10/04 15:23:12;;;;;;;21.52;10.45;;;26.00;99.90;;;;;;4920098;29;20118;-65
2022/10/04 15:25:56;;;;;;;33.85;14.52;;;26.00;99.90;;;;;;4919015;29;20449;-66
2022/10/04 15:28:45;;;;;;;31.00;14.98;;;26.00;99.90;;;;;;4918031;29;20036;-65
2022/10/04 15:31:13;;;;;;;24.20;12.63;;;26.00;99.90;;;;;;4917986;29;20451;-66
2022/10/04 15:34:10;;;;;;;28.95;12.35;;;26.00;99.90;;;;;;4917942;29;20040;-66
2022/10/04 15:36:46;;;;;;;21.70;11.88;;;26.00;99.90;;;;;;4918046;29;20042;-66
2022/10/04 15:39:43;;;;;;;26.30;14.07;;;25.90;99.90;;;;;;4963612;28;20505;-66
2022/10/04 15:42:19;;;;;;;25.92;15.25;;;25.90;99.90;;;;;;4936728;29;20039;-65
2022/10/04 15:44:57;;;;;;;30.60;18.77;;;25.80;99.90;;;;;;4937090;29;20031;-66
2022/10/04 15:47:32;;;;;;;30.58;18.55;;;25.80;99.90;;;;;;4936776;29;20040;-66
2022/10/04 15:50:03;;;;;;;28.33;17.08;;;25.70;99.90;;;;;;4936473;29;20482;-66
2022/10/04 15:52:49;;;;;;;28.02;19.08;;;25.70;99.90;;;;;;4936379;29;20087;-65
2022/10/04 15:55:15;;;;;;;27.65;17.52;;;25.70;99.90;;;;;;4936301;29;20040;-65
2022/10/04 15:57:44;;;;;;;31.38;18.60;;;25.60;99.90;;;;;;4936371;29;20026;-65
2022/10/04 16:00:42;;;;;;;39.45;22.38;;;25.60;99.90;;;;;;4936269;29;20114;-66
2022/10/04 16:03:45;;;;;;;46.42;26.80;;;25.60;99.90;;;;;;4936152;29;20370;-66
2022/10/04 16:06:31;;;;;;;;;;;25.50;99.90;;;;;;4942796;29;20067;-66
2022/10/04 16:09:38;;;;;;;42.88;26.08;;;25.50;99.90;;;;;;4917223;29;20369;-66
2022/10/04 16:12:15;;;;;;;47.28;25.52;;;25.40;99.90;;;;;;4917221;29;20088;-66
2022/10/04 16:15:03;;;;;;;46.78;26.08;;;25.40;99.90;;;;;;4915894;29;20062;-66
2022/10/04 16:17:40;;;;;;;50.38;25.55;;;25.50;99.90;;;;;;4911346;29;20036;-66
2022/10/04 16:20:35;;;;;;;51.97;27.27;;;25.50;99.90;;;;;;4951863;29;20441;-66
2022/10/04 16:23:23;;;;;;;52.20;27.10;;;25.50;99.90;;;;;;4953259;29;20122;-65
2022/10/04 16:25:57;;;;;;;58.17;29.55;;;25.60;99.90;;;;;;4954879;29;20071;-66
2022/10/04 16:28:29;;;;;;;56.65;30.05;;;25.60;99.90;;;;;;4955025;29;20454;-65
2022/10/04 16:31:35;;;;;;;48.13;27.40;;;25.50;99.90;;;;;;4955144;29;20039;-65
2022/10/04 16:34:23;;;;;;;38.78;22.17;;;25.60;99.90;;;;;;4953782;28;20556;-65
2022/10/04 16:36:57;;;;;;;47.70;22.08;;;25.50;99.90;;;;;;4954669;29;20031;-65
2022/10/04 16:42:43;;;;;;;24.88;14.15;;;25.50;99.90;;;;;;5015074;28;20030;-66
2022/10/04 16:45:12;;;;;;;26.52;15.40;;;25.50;99.90;;;;;;4935113;29;20036;-65
2022/10/04 16:47:49;;;;;;;22.83;13.88;;;25.50;99.90;;;;;;4935196;29;20107;-65
2022/10/04 16:50:55;;;;;;;20.00;13.77;;;25.60;99.90;;;;;;4936265;28;20093;-65